Pagina principale
METAR-TAF:

METAR-TAF

Aeroporti :

Brescia, Italia

Montichiari

latitudine: 45-24-02N, longitudine: 010-18-59E, altezza: 104 m

Osservazione

Il bollettino è stato emesso 1 ora e 9 minuti fa, alle 11:50 UTC
Vento 8 kt da ovest
Temperature 5°C
Umidità 93%
Pressione 1009 hPa
Visibilità: 1500 m
Nuvoloso ad un'altezza di 1000 ft
foschia

METAR: LIPO 161150Z 26008KT 1500 BR BKN010 05/04 Q1009

Ora: 13:59 (12:59 UTC)

Previsione

Il bollettino è stato emesso 1 ora e 59 minuti fa, alle 11:00 UTC
Previsione valida dal 16 alle 12 UTC al 17 alle 12 UTC
Vento 5 kt da ovest/nord-ovest
Visibilità: 2500 m
Nubi sparse ad un'altezza di 1000 ft
Nubi sparse ad un'altezza di 5000 ft
foschia
Evoluzione graduale
dal 16 alle 12 UTC al 16 alle 14 UTC
Visibilità: 6000 m
Evoluzione graduale
dal 17 alle 07 UTC al 17 alle 09 UTC
Vento 15 kt da nord-ovest

TAF: LIPO 161100Z 1612/1712 29005KT 2500 BR SCT010 SCT050 BECMG 1612/1614 6000 BECMG 1707/1709 31015KT

Osservazioni e previsioni meteorologiche di più di 4000 aeroporti (messaggi METAR e TAF).

Le stazioni disponibili sono rappresentate dai dischi gialli e rossi sulla carta.

Puntare il mouse per vedere il nome della stazione.

Clicca sopra per visualizzare le osservazioni e previsioni meteorologiche.

Per cambiare la mappa : fare clic sui pulsanti verdi con una croce nera per ingrandire, il pulsante verde con un trattino per diminuire, o sulla freccia verde per le mappe adiacenti.


METAR-TAF: